Latest Weather Observations for Nambour

IDQ60801

Issued at 12:02 pm EST Monday 23 January 2017 (issued every 30 minutes, with the page automatically refreshed every 10 minutes)

About weather observations | Map of weather stations | Latest weather observations for QLD | Other Formats
Station Details ID: 040988 Name: NAMBOUR DAFF - HILLSIDE Lat: -26.64 Lon: 152.94 Height: 53.24 m
Data from the previous 72 hours. | See also: Recent months at Nambour
Date/Time
EST
Temp
°C
App
Temp
°C
Dew
Point
°C
Rel
Hum
%
Delta-T
°C
Wind Press
QNH
hPa
Press
MSL
hPa
Rain since
9am
mm
Dir  Spd
km/h
Gust
km/h
Spd
kts
Gust
kts
23/12:00pm 26.7 24.8 13.1 43 8.0 E 15 20 8 11 - 1015.9 -
23/11:30am 26.8 25.2 12.8 42 8.2 ENE 13 19 7 10 1016.5 1016.2 0.0
23/11:00am 26.7 26.1 12.4 41 8.3 ENE 7 17 4 9 1016.7 1016.4 0.0
23/10:30am 26.4 25.2 12.8 43 7.9 ENE 11 17 6 9 1017.2 1016.9 0.0
23/10:00am 26.9 25.6 12.5 40 8.4 ENE 11 17 6 9 1017.1 1016.8 0.0
23/09:30am 26.1 25.9 13.6 46 7.4 E 7 17 4 9 1017.3 1017.0 0.0
23/09:00am 26.6 25.1 13.0 43 8.0 ENE 13 26 7 14 1017.1 1016.8 0.0
23/08:30am 25.8 24.3 13.0 45 7.5 ENE 13 24 7 13 1016.9 1016.6 0.0
23/08:00am 25.9 26.1 14.1 48 7.0 ESE 6 9 3 5 1016.8 1016.5 0.0
23/07:30am 24.5 25.6 15.7 58 5.3 SSE 4 7 2 4 1016.8 1016.5 0.0
23/07:00am 20.9 24.1 18.8 88 1.3 CALM 0 0 0 0 1016.7 1016.4 0.0
23/06:30am 19.8 22.6 17.9 89 1.2 CALM 0 0 0 0 1016.4 1016.1 0.0
23/06:00am 19.0 21.2 16.6 86 1.4 CALM 0 0 0 0 1016.0 1015.7 0.0
23/05:30am 18.5 20.3 15.4 82 1.8 CALM 0 0 0 0 1015.6 1015.3 0.0
23/05:00am 19.0 20.9 15.7 81 2.0 CALM 0 0 0 0 1015.4 1015.1 0.0
23/04:30am 19.1 20.9 15.4 79 2.2 CALM 0 0 0 0 1015.2 1014.9 0.0
23/04:00am 19.9 21.9 16.0 78 2.3 CALM 0 0 0 0 1014.9 1014.6 0.0
23/03:30am 20.6 22.1 15.8 74 2.9 SSW 2 6 1 3 1014.9 1014.6 0.0
23/03:00am 21.0 23.5 17.2 79 2.3 CALM 0 0 0 0 1014.9 1014.6 0.0
23/02:30am 20.9 23.4 17.3 80 2.2 CALM 0 0 0 0 1014.9 1014.6 0.0
23/02:00am 21.0 23.4 17.0 78 2.4 CALM 0 0 0 0 1015.1 1014.8 0.0
23/01:30am 21.1 23.5 16.9 77 2.6 CALM 0 0 0 0 1015.3 1015.0 0.0
23/01:00am 20.8 23.2 17.0 79 2.3 CALM 0 4 0 2 1015.6 1015.3 0.0
23/12:30am 20.9 23.2 16.7 77 2.6 CALM 0 0 0 0 1015.8 1015.5 0.0
23/12:00am 21.3 24.0 17.7 80 2.2 CALM 0 0 0 0 1015.9 1015.6 0.0
 
Date/Time
EST
Temp
°C
App
Temp
°C
Dew
Point
°C
Rel
Hum
%
Delta-T
°C
Wind Press
QNH
hPa
Press
MSL
hPa
Rain since
9am
mm
Dir  Spd
km/h
Gust
km/h
Spd
kts
Gust
kts
22/11:30pm 21.4 23.9 17.2 77 2.6 CALM 0 0 0 0 1016.0 1015.7 0.0
22/11:00pm 21.8 24.1 16.7 73 3.1 CALM 0 0 0 0 1016.2 1015.9 0.0
22/10:30pm 21.9 24.3 17.1 74 2.9 CALM 0 0 0 0 1016.4 1016.1 0.0
22/10:00pm 22.1 24.6 17.2 74 3.0 CALM 0 0 0 0 1016.7 1016.4 0.0
22/09:30pm 22.1 24.5 17.0 73 3.1 CALM 0 0 0 0 1016.7 1016.4 0.0
22/09:00pm 21.9 24.2 16.8 73 3.1 CALM 0 0 0 0 1016.6 1016.3 0.0
22/08:30pm 22.4 24.8 17.1 72 3.3 CALM 0 0 0 0 1016.6 1016.3 0.0
22/08:00pm 22.3 24.5 16.6 70 3.5 CALM 0 2 0 1 1016.4 1016.1 0.0
22/07:30pm 22.5 24.6 16.3 68 3.8 CALM 0 0 0 0 1016.2 1015.9 0.0
22/07:00pm 23.8 25.3 15.8 61 4.8 SE 2 6 1 3 1016.1 1015.8 0.0
22/06:30pm 24.1 25.3 15.9 60 5.0 SE 4 7 2 4 1015.8 1015.5 0.0
22/06:00pm 24.3 25.0 15.5 58 5.3 ESE 6 17 3 9 1015.4 1015.1 0.0
22/05:30pm 24.6 25.3 15.5 57 5.5 ESE 6 13 3 7 1015.1 1014.8 0.0
22/05:00pm 24.5 24.6 15.4 57 5.5 E 9 17 5 9 1014.9 1014.6 0.0
22/04:30pm 24.7 25.3 15.9 58 5.4 ESE 7 15 4 8 1014.6 1014.3 0.0
22/04:00pm 24.6 25.9 16.1 59 5.2 ESE 4 9 2 5 1014.7 1014.4 0.0
22/03:30pm 24.7 25.4 16.2 59 5.2 ESE 7 17 4 9 1014.9 1014.6 0.0
22/03:00pm 24.9 25.7 16.3 59 5.3 E 7 15 4 8 1015.0 1014.7 0.0
22/02:30pm 25.0 25.9 16.2 58 5.4 E 6 9 3 5 1015.3 1015.0 0.0
22/02:00pm 25.3 25.3 16.2 57 5.6 E 11 20 6 11 1015.3 1015.0 0.0
22/01:30pm 25.1 25.7 16.8 60 5.1 E 9 19 5 10 1015.4 1015.1 0.0
22/01:00pm 24.8 26.3 17.5 64 4.6 E 6 9 3 5 1015.6 1015.3 0.0
22/12:30pm 24.6 27.0 18.8 70 3.7 E 4 9 2 5 1016.0 1015.7 0.0
22/12:00pm 23.6 24.2 17.6 69 3.7 E 11 20 6 11 1016.3 1016.0 0.0
22/11:30am 24.2 26.0 18.4 70 3.7 SE 6 11 3 6 1016.4 1016.1 0.0
22/11:00am 24.7 26.9 18.4 68 4.0 SE 4 9 2 5 1016.3 1016.0 0.0
22/10:30am 24.3 26.0 18.5 70 3.7 E 7 15 4 8 1016.5 1016.2 0.0
22/10:00am 25.0 28.1 19.4 71 3.6 SE 2 6 1 3 1016.4 1016.1 0.0
22/09:30am 24.6 27.3 19.4 73 3.3 SE 4 11 2 6 1016.3 1016.0 0.0
22/09:00am 24.2 27.8 20.5 80 2.4 ENE 2 6 1 3 1016.3 1016.0 19.8
22/08:30am 23.5 27.6 20.8 85 1.8 CALM 0 4 0 2 1016.1 1015.8 19.8
22/08:00am 22.9 26.4 20.4 86 1.6 E 2 6 1 3 1016.0 1015.7 19.8
22/07:30am 22.7 26.6 20.4 87 1.5 CALM 0 4 0 2 1015.8 1015.5 19.8
22/07:00am 22.3 26.3 20.6 90 1.1 CALM 0 2 0 1 1015.7 1015.4 19.8
22/06:30am 21.9 25.8 20.4 91 1.0 CALM 0 4 0 2 1015.4 1015.1 19.8
22/06:00am 21.8 25.3 20.4 92 0.9 SW 2 7 1 4 1015.0 1014.7 19.8
22/05:30am 21.7 25.3 20.5 93 0.8 WSW 2 4 1 2 1014.8 1014.5 19.6
22/05:00am 21.8 25.7 20.4 92 0.9 CALM 0 4 0 2 1014.4 1014.1 19.4
22/04:30am 22.0 25.6 20.6 92 0.9 SSW 2 6 1 3 1013.8 1013.5 19.2
22/04:00am 22.1 25.7 20.6 91 1.0 SW 2 4 1 2 1013.3 1013.0 19.2
22/03:30am 22.3 26.4 20.8 91 1.0 CALM 0 17 0 9 1012.9 1012.6 19.2
22/03:00am 22.4 26.5 20.7 90 1.1 CALM 0 2 0 1 1012.7 1012.4 19.2
22/02:30am 22.3 26.5 20.9 92 0.9 CALM 0 0 0 0 1012.6 1012.3 19.2
22/02:00am 22.3 26.5 20.9 92 0.9 CALM 0 0 0 0 1012.8 1012.5 19.2
22/01:30am 22.3 26.2 21.1 93 0.8 SW 2 6 1 3 1013.1 1012.8 19.2
22/01:00am 22.3 26.6 21.1 93 0.8 CALM 0 4 0 2 1013.1 1012.8 19.2
22/12:30am 22.4 25.8 21.0 92 0.9 S 4 6 2 3 1013.4 1013.1 19.2
22/12:00am 22.6 26.5 21.2 92 0.9 SE 2 6 1 3 1013.6 1013.3 19.2
 
Date/Time
EST
Temp
°C
App
Temp
°C
Dew
Point
°C
Rel
Hum
%
Delta-T
°C
Wind Press
QNH
hPa
Press
MSL
hPa
Rain since
9am
mm
Dir  Spd
km/h
Gust
km/h
Spd
kts
Gust
kts
21/11:30pm 22.7 26.7 21.3 92 0.9 WSW 2 7 1 4 1013.7 1013.4 19.0
21/11:00pm 23.0 27.6 21.8 93 0.8 CALM 0 2 0 1 1013.8 1013.5 18.8
21/10:30pm 22.9 27.1 21.7 93 0.8 ESE 2 7 1 4 1013.9 1013.6 18.6
21/10:00pm 22.9 26.8 21.9 94 0.7 ESE 4 9 2 5 1013.9 1013.6 18.6
21/09:30pm 22.9 26.7 21.7 93 0.8 SE 4 9 2 5 1013.6 1013.3 16.8
21/09:00pm 22.9 26.7 21.7 93 0.8 ESE 4 11 2 6 1013.2 1012.9 16.8
21/08:30pm 23.1 27.4 21.9 93 0.8 ESE 2 6 1 3 1012.9 1012.6 16.4
21/08:00pm 23.1 26.5 21.7 92 0.9 ESE 6 11 3 6 1012.5 1012.2 16.2
21/07:30pm 23.4 27.1 22.2 93 0.8 SE 6 15 3 8 1012.4 1012.1 16.0
21/07:00pm 23.5 27.9 22.1 92 0.9 ESE 2 9 1 5 1011.6 1011.3 15.6
21/06:30pm 23.6 27.2 22.4 93 0.8 ESE 7 15 4 8 1010.9 1010.6 15.4
21/06:00pm 23.8 27.9 22.2 91 1.1 ESE 4 11 2 6 1010.7 1010.4 13.8
21/05:30pm 24.2 28.5 22.6 91 1.1 ESE 4 9 2 5 1010.1 1009.8 13.2
21/05:00pm 24.5 29.8 23.1 92 0.9 CALM 0 2 0 1 1009.3 1009.0 13.2
21/04:30pm 24.6 29.0 22.8 90 1.2 SSE 4 11 2 6 1009.0 1008.7 12.2
21/04:00pm 24.8 29.4 23.2 91 1.1 SE 4 9 2 5 1008.5 1008.2 12.2
21/03:30pm 24.9 29.2 23.3 91 1.1 SE 6 11 3 6 1008.1 1007.9 11.6
21/03:00pm 26.2 28.5 22.1 78 2.8 ESE 13 28 7 15 1008.0 1007.8 2.8
21/02:30pm 28.3 30.2 22.1 69 4.2 ESE 15 26 8 14 1007.4 1007.2 0.0
21/02:22pm 29.2 31.1 21.4 63 5.2 ESE 13 26 7 14 1007.3 1007.1 0.0
21/02:00pm 34.2 36.7 19.8 42 9.6 ESE 6 20 3 11 1006.3 1006.1 0.0
21/01:30pm 35.0 37.5 20.2 42 9.9 W 7 13 4 7 1006.1 1005.9 0.0
21/01:00pm 34.2 36.7 19.8 42 9.6 SE 6 9 3 5 1006.3 1006.1 0.0
21/12:30pm 34.6 36.7 20.2 43 9.6 SW 9 19 5 10 1006.6 1006.4 0.0
21/12:00pm 33.9 36.6 20.3 45 9.1 SW 6 13 3 7 1006.6 1006.4 0.0
21/11:30am 33.7 37.0 20.8 46 8.7 W 4 9 2 5 1006.7 1006.5 0.0
21/11:00am 33.2 35.8 20.4 47 8.6 SW 7 15 4 8 1006.9 1006.7 0.0
21/10:30am 34.0 36.4 20.0 43 9.3 W 7 17 4 9 1006.9 1006.7 0.0
21/10:00am 33.7 35.4 19.4 43 9.5 WNW 9 15 5 8 1006.9 1006.7 0.0
21/09:30am 34.1 35.8 20.1 43 9.3 NW 11 20 6 11 1006.9 1006.7 0.0
21/09:00am 33.2 35.1 18.6 42 9.5 NNE 6 13 3 7 1007.1 1006.9 0.0
21/08:30am 30.9 33.8 19.9 52 7.3 ENE 4 6 2 3 1006.9 1006.7 0.0
21/08:00am 29.9 33.0 19.6 54 6.8 WNW 2 9 1 5 1006.8 1006.6 0.0
21/07:30am 27.6 30.0 18.0 55 6.1 E 2 4 1 2 1006.9 1006.7 0.0
21/07:00am 26.9 28.8 17.7 57 5.8 ENE 4 6 2 3 1006.7 1006.5 0.0
21/06:30am 26.3 27.6 17.1 57 5.7 ENE 6 7 3 4 1006.5 1006.3 0.0
21/06:00am 26.0 28.3 16.8 57 5.7 CALM 0 0 0 0 1006.3 1006.1 0.0
21/05:30am 26.2 28.1 16.7 56 5.9 E 2 6 1 3 1006.0 1005.8 0.0
21/05:00am 26.5 27.4 16.1 52 6.4 E 6 7 3 4 1005.6 1005.4 0.0
21/04:30am 27.4 29.0 17.0 53 6.5 NW 4 9 2 5 1004.9 1004.7 0.0
21/04:00am 27.4 28.8 16.4 51 6.8 NW 4 11 2 6 1004.5 1004.2 0.0
21/03:30am 27.4 28.0 15.7 48 7.2 NW 7 17 4 9 1004.3 1004.0 0.0
21/03:00am 27.4 27.7 16.1 50 7.0 NNW 9 15 5 8 1004.1 1003.8 0.0
21/02:30am 27.4 28.8 17.3 54 6.3 N 6 11 3 6 1004.2 1003.9 0.0
21/02:00am 27.4 29.4 17.8 55 6.1 N 4 9 2 5 1004.4 1004.1 0.0
21/01:30am 27.3 30.1 18.9 60 5.4 NNE 2 6 1 3 1004.5 1004.2 0.0
21/01:00am 27.2 29.7 19.0 61 5.3 NNE 4 6 2 3 1004.5 1004.2 0.0
21/12:30am 27.9 30.1 19.1 58 5.7 NNE 6 9 3 5 1004.6 1004.3 0.0
21/12:00am 28.5 30.7 19.2 57 6.0 NNW 6 11 3 6 1005.0 1004.8 0.0
 
Date/Time
EST
Temp
°C
App
Temp
°C
Dew
Point
°C
Rel
Hum
%
Delta-T
°C
Wind Press
QNH
hPa
Press
MSL
hPa
Rain since
9am
mm
Dir  Spd
km/h
Gust
km/h
Spd
kts
Gust
kts
20/11:30pm 28.8 31.0 19.1 55 6.3 WNW 6 17 3 9 1005.4 1005.2 0.0
20/11:00pm 29.2 31.2 19.2 54 6.5 NW 7 22 4 12 1005.7 1005.5 0.0
20/10:30pm 29.5 30.8 19.2 54 6.7 NNW 11 24 6 13 1005.3 1005.1 0.0
20/10:00pm 29.6 32.1 20.2 57 6.2 NNW 7 15 4 8 1005.4 1005.2 0.0
20/09:30pm 29.5 32.8 21.4 61 5.4 NNW 6 7 3 4 1005.0 1004.8 0.0
20/09:00pm 29.4 32.8 21.6 63 5.3 NNW 6 9 3 5 1004.6 1004.3 0.0
20/08:30pm 29.4 33.0 22.1 65 4.9 NNW 6 9 3 5 1004.4 1004.1 0.0
20/08:00pm 29.1 33.9 22.8 69 4.3 NNW 2 4 1 2 1004.3 1004.0 0.0
20/07:30pm 29.2 34.1 22.4 66 4.6 CALM 0 0 0 0 1004.3 1004.0 0.0
20/07:00pm 29.9 34.2 22.6 65 5.0 NNW 4 7 2 4 1004.2 1003.9 0.0
20/06:30pm 30.7 34.3 22.0 59 5.9 N 6 9 3 5 1004.0 1003.7 0.0
20/06:00pm 31.1 34.4 21.9 58 6.3 NE 7 11 4 6 1003.7 1003.4 0.0
20/05:30pm 31.5 34.0 21.7 56 6.6 ENE 11 20 6 11 1003.7 1003.4 0.0
20/05:00pm 32.3 34.3 21.5 53 7.3 NE 13 22 7 12 1003.2 1002.9 0.0
20/04:30pm 33.9 36.2 21.3 47 8.5 NE 11 20 6 11 1002.9 1002.6 0.0
20/04:00pm 35.0 36.5 19.8 41 10.2 N 11 22 6 12 1002.9 1002.6 0.0
20/03:30pm 35.2 36.2 18.7 37 10.8 NW 11 26 6 14 1003.3 1003.0 0.0
20/03:00pm 34.9 35.6 18.9 39 10.6 N 13 26 7 14 1003.7 1003.4 0.0
20/02:30pm 35.0 36.0 19.4 40 10.3 NNW 13 22 7 12 1004.1 1003.8 0.0
20/02:00pm 33.9 34.8 18.4 40 10.1 NNW 11 24 6 13 1004.8 1004.6 0.0
20/01:30pm 33.6 34.5 19.3 43 9.4 NNW 13 24 7 13 1005.7 1005.5 0.0
20/01:00pm 33.0 34.0 18.7 42 9.4 NW 11 20 6 11 1006.3 1006.1 0.0
20/12:30pm 32.5 33.3 19.0 44 8.8 NNW 13 22 7 12 1007.0 1006.8 0.0

Other Formats:

Comma delimited format used in spreadsheet applications
http://www.bom.gov.au/fwo/IDQ60801/IDQ60801.95572.axf

JavaScript Object Notation format (JSON) in row-major order
http://www.bom.gov.au/fwo/IDQ60801/IDQ60801.95572.json